sensor_id;sensor_type;location;lat;lon;timestamp;pressure;altitude;pressure_sealevel;temperature;humidity
20368;BME280;10343;52.402;9.796;2023-07-20T00:00:10;100680.25;;;22.57;50.24
20368;BME280;10343;52.402;9.796;2023-07-20T00:02:41;100684.34;;;22.87;49.16
20368;BME280;10343;52.402;9.796;2023-07-20T00:05:09;100690.97;;;22.83;49.92
20368;BME280;10343;52.402;9.796;2023-07-20T00:07:37;100684.91;;;22.79;50.28
20368;BME280;10343;52.402;9.796;2023-07-20T00:10:06;100683.41;;;22.51;51.25
20368;BME280;10343;52.402;9.796;2023-07-20T00:12:34;100685.84;;;23.15;49.15
20368;BME280;10343;52.402;9.796;2023-07-20T00:15:02;100688.41;;;22.44;51.79
20368;BME280;10343;52.402;9.796;2023-07-20T00:17:30;100676.47;;;22.60;51.47
20368;BME280;10343;52.402;9.796;2023-07-20T00:19:59;100671.06;;;22.60;51.62
20368;BME280;10343;52.402;9.796;2023-07-20T00:22:27;100672.22;;;22.68;51.18
20368;BME280;10343;52.402;9.796;2023-07-20T00:24:55;100666.97;;;22.78;50.90
20368;BME280;10343;52.402;9.796;2023-07-20T00:27:23;100658.13;;;22.76;51.19
20368;BME280;10343;52.402;9.796;2023-07-20T00:29:51;100660.59;;;22.79;51.45
20368;BME280;10343;52.402;9.796;2023-07-20T00:32:19;100663.53;;;22.76;51.47
20368;BME280;10343;52.402;9.796;2023-07-20T00:34:47;100656.34;;;22.88;51.67
20368;BME280;10343;52.402;9.796;2023-07-20T00:37:16;100660.28;;;23.19;50.57
20368;BME280;10343;52.402;9.796;2023-07-20T00:39:44;100659.25;;;23.09;50.71
20368;BME280;10343;52.402;9.796;2023-07-20T00:42:11;100662.63;;;22.88;51.45
20368;BME280;10343;52.402;9.796;2023-07-20T00:44:39;100660.19;;;22.97;50.80
20368;BME280;10343;52.402;9.796;2023-07-20T00:47:07;100664.72;;;22.48;52.32
20368;BME280;10343;52.402;9.796;2023-07-20T00:49:35;100661.00;;;22.62;51.90
20368;BME280;10343;52.402;9.796;2023-07-20T00:52:06;100659.50;;;22.58;52.46
20368;BME280;10343;52.402;9.796;2023-07-20T00:54:36;100659.50;;;22.58;52.50
20368;BME280;10343;52.402;9.796;2023-07-20T00:57:06;100652.69;;;22.65;51.82
20368;BME280;10343;52.402;9.796;2023-07-20T00:59:35;100653.41;;;22.67;50.92
20368;BME280;10343;52.402;9.796;2023-07-20T01:02:03;100656.97;;;22.30;52.20
20368;BME280;10343;52.402;9.796;2023-07-20T01:04:32;100656.38;;;21.49;55.05
20368;BME280;10343;52.402;9.796;2023-07-20T01:07:05;100647.47;;;22.62;50.85
20368;BME280;10343;52.402;9.796;2023-07-20T01:09:41;100653.97;;;22.22;51.98
20368;BME280;10343;52.402;9.796;2023-07-20T01:12:14;100662.47;;;22.66;50.60
20368;BME280;10343;52.402;9.796;2023-07-20T01:14:45;100669.72;;;22.41;51.71
20368;BME280;10343;52.402;9.796;2023-07-20T01:17:15;100655.25;;;22.66;50.90
20368;BME280;10343;52.402;9.796;2023-07-20T01:19:43;100660.41;;;22.32;52.37
20368;BME280;10343;52.402;9.796;2023-07-20T01:22:21;100665.03;;;22.80;50.52
20368;BME280;10343;52.402;9.796;2023-07-20T01:25:18;100664.78;;;22.09;53.76
20368;BME280;10343;52.402;9.796;2023-07-20T01:28:16;100664.41;;;22.39;52.19
20368;BME280;10343;52.402;9.796;2023-07-20T01:30:56;100663.22;;;22.31;52.97
20368;BME280;10343;52.402;9.796;2023-07-20T01:33:30;100656.31;;;22.27;52.44
20368;BME280;10343;52.402;9.796;2023-07-20T01:36:00;100666.16;;;22.28;52.62
20368;BME280;10343;52.402;9.796;2023-07-20T01:38:29;100661.19;;;23.07;50.34
20368;BME280;10343;52.402;9.796;2023-07-20T01:40:57;100653.38;;;23.62;48.26
20368;BME280;10343;52.402;9.796;2023-07-20T01:43:25;100665.78;;;22.45;51.92
20368;BME280;10343;52.402;9.796;2023-07-20T01:45:53;100662.25;;;22.32;53.08
20368;BME280;10343;52.402;9.796;2023-07-20T01:48:21;100664.50;;;22.75;51.58
20368;BME280;10343;52.402;9.796;2023-07-20T01:50:50;100657.00;;;23.03;50.96
20368;BME280;10343;52.402;9.796;2023-07-20T01:53:19;100654.50;;;22.88;51.04
20368;BME280;10343;52.402;9.796;2023-07-20T01:55:47;100655.78;;;23.07;50.57
20368;BME280;10343;52.402;9.796;2023-07-20T01:58:15;100664.22;;;22.91;51.41
20368;BME280;10343;52.402;9.796;2023-07-20T02:00:43;100659.56;;;22.93;50.62
20368;BME280;10343;52.402;9.796;2023-07-20T02:03:11;100653.69;;;22.99;50.76
20368;BME280;10343;52.402;9.796;2023-07-20T02:05:39;100659.09;;;22.99;51.21
20368;BME280;10343;52.402;9.796;2023-07-20T02:08:10;100653.09;;;23.07;50.57
20368;BME280;10343;52.402;9.796;2023-07-20T02:10:38;100645.91;;;22.95;51.17
20368;BME280;10343;52.402;9.796;2023-07-20T02:13:06;100645.47;;;23.01;50.57
20368;BME280;10343;52.402;9.796;2023-07-20T02:15:33;100648.69;;;23.06;50.32
20368;BME280;10343;52.402;9.796;2023-07-20T02:18:01;100651.06;;;22.62;51.41
20368;BME280;10343;52.402;9.796;2023-07-20T02:20:33;100653.13;;;22.59;51.54
20368;BME280;10343;52.402;9.796;2023-07-20T02:23:01;100647.41;;;22.50;51.85
20368;BME280;10343;52.402;9.796;2023-07-20T02:25:30;100655.88;;;22.70;51.41
20368;BME280;10343;52.402;9.796;2023-07-20T02:27:58;100657.81;;;22.31;53.08
20368;BME280;10343;52.402;9.796;2023-07-20T02:30:26;100658.00;;;21.91;54.55
20368;BME280;10343;52.402;9.796;2023-07-20T02:32:54;100652.13;;;23.08;51.13
20368;BME280;10343;52.402;9.796;2023-07-20T02:35:25;100659.19;;;22.12;53.42
20368;BME280;10343;52.402;9.796;2023-07-20T02:37:53;100667.53;;;22.33;52.99
20368;BME280;10343;52.402;9.796;2023-07-20T02:40:21;100667.38;;;22.23;53.04
20368;BME280;10343;52.402;9.796;2023-07-20T02:42:51;100665.38;;;22.51;52.27
20368;BME280;10343;52.402;9.796;2023-07-20T02:45:19;100667.25;;;22.25;52.98
20368;BME280;10343;52.402;9.796;2023-07-20T02:47:47;100661.31;;;22.33;52.72
20368;BME280;10343;52.402;9.796;2023-07-20T02:50:15;100665.09;;;22.30;52.65
20368;BME280;10343;52.402;9.796;2023-07-20T02:52:43;100666.69;;;22.33;52.62
20368;BME280;10343;52.402;9.796;2023-07-20T02:55:11;100664.00;;;22.33;52.70
20368;BME280;10343;52.402;9.796;2023-07-20T02:57:41;100669.72;;;22.28;53.01
20368;BME280;10343;52.402;9.796;2023-07-20T03:00:12;100669.59;;;22.30;52.91
20368;BME280;10343;52.402;9.796;2023-07-20T03:02:42;100659.66;;;22.43;52.29
20368;BME280;10343;52.402;9.796;2023-07-20T03:05:10;100657.50;;;22.48;52.26
20368;BME280;10343;52.402;9.796;2023-07-20T03:07:38;100662.28;;;23.17;49.54
20368;BME280;10343;52.402;9.796;2023-07-20T03:10:07;100667.03;;;22.65;51.57
20368;BME280;10343;52.402;9.796;2023-07-20T03:12:36;100658.06;;;22.89;50.71
20368;BME280;10343;52.402;9.796;2023-07-20T03:15:05;100662.31;;;23.40;49.40
20368;BME280;10343;52.402;9.796;2023-07-20T03:17:34;100663.88;;;22.96;50.29
20368;BME280;10343;52.402;9.796;2023-07-20T03:20:04;100667.91;;;23.14;49.79
20368;BME280;10343;52.402;9.796;2023-07-20T03:22:35;100673.50;;;22.76;50.93
20368;BME280;10343;52.402;9.796;2023-07-20T03:25:04;100669.03;;;22.50;52.24
20368;BME280;10343;52.402;9.796;2023-07-20T03:27:32;100673.81;;;22.71;51.80
20368;BME280;10343;52.402;9.796;2023-07-20T03:30:01;100666.00;;;23.03;50.77
20368;BME280;10343;52.402;9.796;2023-07-20T03:32:29;100672.84;;;22.72;50.80
20368;BME280;10343;52.402;9.796;2023-07-20T03:34:58;100671.78;;;22.62;51.52
20368;BME280;10343;52.402;9.796;2023-07-20T03:37:26;100668.94;;;22.76;51.06
20368;BME280;10343;52.402;9.796;2023-07-20T03:39:54;100673.59;;;22.50;51.94
20368;BME280;10343;52.402;9.796;2023-07-20T03:42:23;100681.25;;;22.80;51.14
20368;BME280;10343;52.402;9.796;2023-07-20T03:44:51;100669.63;;;22.67;51.79
20368;BME280;10343;52.402;9.796;2023-07-20T03:47:20;100664.16;;;22.55;51.39
20368;BME280;10343;52.402;9.796;2023-07-20T03:49:48;100677.44;;;22.59;51.70
20368;BME280;10343;52.402;9.796;2023-07-20T03:52:17;100670.44;;;22.80;51.03
20368;BME280;10343;52.402;9.796;2023-07-20T03:54:45;100660.88;;;23.12;49.92
20368;BME280;10343;52.402;9.796;2023-07-20T03:57:13;100659.41;;;23.43;49.22
20368;BME280;10343;52.402;9.796;2023-07-20T03:59:45;100671.47;;;23.62;47.91
20368;BME280;10343;52.402;9.796;2023-07-20T04:02:13;100669.75;;;23.61;48.12
20368;BME280;10343;52.402;9.796;2023-07-20T04:04:42;100663.72;;;23.57;47.90
20368;BME280;10343;52.402;9.796;2023-07-20T04:07:10;100669.16;;;23.57;47.68
20368;BME280;10343;52.402;9.796;2023-07-20T04:09:42;100669.75;;;23.61;47.73
20368;BME280;10343;52.402;9.796;2023-07-20T04:12:10;100669.44;;;23.99;46.62
20368;BME280;10343;52.402;9.796;2023-07-20T04:14:38;100675.94;;;23.74;46.86
20368;BME280;10343;52.402;9.796;2023-07-20T04:17:06;100685.66;;;23.30;49.26
20368;BME280;10343;52.402;9.796;2023-07-20T04:19:34;100691.44;;;23.01;52.59
20368;BME280;10343;52.402;9.796;2023-07-20T04:22:02;100686.75;;;23.63;50.76
20368;BME280;10343;52.402;9.796;2023-07-20T04:24:30;100697.53;;;22.54;54.06
20368;BME280;10343;52.402;9.796;2023-07-20T04:26:59;100694.13;;;22.27;56.00
20368;BME280;10343;52.402;9.796;2023-07-20T04:29:27;100696.69;;;22.54;55.56
20368;BME280;10343;52.402;9.796;2023-07-20T04:31:55;100701.16;;;22.42;55.33
20368;BME280;10343;52.402;9.796;2023-07-20T04:34:23;100690.81;;;23.80;51.55
20368;BME280;10343;52.402;9.796;2023-07-20T04:36:51;100695.94;;;23.49;52.01
20368;BME280;10343;52.402;9.796;2023-07-20T04:39:21;100703.63;;;23.06;53.44
20368;BME280;10343;52.402;9.796;2023-07-20T04:42:04;100710.59;;;22.98;54.30
20368;BME280;10343;52.402;9.796;2023-07-20T04:44:32;100712.81;;;23.04;53.99
20368;BME280;10343;52.402;9.796;2023-07-20T04:47:00;100703.22;;;23.00;54.33
20368;BME280;10343;52.402;9.796;2023-07-20T04:49:32;100701.38;;;23.24;53.39
20368;BME280;10343;52.402;9.796;2023-07-20T04:52:00;100717.06;;;22.08;57.87
20368;BME280;10343;52.402;9.796;2023-07-20T04:54:30;100712.00;;;21.91;59.81
20368;BME280;10343;52.402;9.796;2023-07-20T04:56:57;100712.59;;;22.20;58.61
20368;BME280;10343;52.402;9.796;2023-07-20T04:59:28;100712.72;;;22.18;58.91
20368;BME280;10343;52.402;9.796;2023-07-20T05:01:56;100713.16;;;22.25;59.70
20368;BME280;10343;52.402;9.796;2023-07-20T05:04:24;100712.84;;;22.67;57.77
20368;BME280;10343;52.402;9.796;2023-07-20T05:06:55;100711.53;;;22.22;60.51
20368;BME280;10343;52.402;9.796;2023-07-20T05:09:23;100720.66;;;22.59;58.92
20368;BME280;10343;52.402;9.796;2023-07-20T05:11:51;100709.03;;;22.45;59.56
20368;BME280;10343;52.402;9.796;2023-07-20T05:14:19;100713.16;;;21.99;61.54
20368;BME280;10343;52.402;9.796;2023-07-20T05:16:50;100717.91;;;21.70;65.15
20368;BME280;10343;52.402;9.796;2023-07-20T05:19:18;100717.91;;;22.21;61.58
20368;BME280;10343;52.402;9.796;2023-07-20T05:21:46;100721.03;;;21.24;67.54
20368;BME280;10343;52.402;9.796;2023-07-20T05:24:14;100720.97;;;22.04;63.23
20368;BME280;10343;52.402;9.796;2023-07-20T05:26:42;100726.69;;;22.12;63.29
20368;BME280;10343;52.402;9.796;2023-07-20T05:29:10;100725.63;;;22.65;59.54
20368;BME280;10343;52.402;9.796;2023-07-20T05:31:37;100727.50;;;22.26;60.60
20368;BME280;10343;52.402;9.796;2023-07-20T05:34:07;100725.16;;;22.21;61.09
20368;BME280;10343;52.402;9.796;2023-07-20T05:36:34;100719.63;;;22.35;61.29
20368;BME280;10343;52.402;9.796;2023-07-20T05:39:03;100726.34;;;22.04;60.63
20368;BME280;10343;52.402;9.796;2023-07-20T05:41:30;100729.03;;;21.78;60.59
20368;BME280;10343;52.402;9.796;2023-07-20T05:43:58;100729.78;;;21.54;62.61
20368;BME280;10343;52.402;9.796;2023-07-20T05:46:26;100730.75;;;22.05;60.31
20368;BME280;10343;52.402;9.796;2023-07-20T05:49:04;100738.66;;;22.08;60.71
20368;BME280;10343;52.402;9.796;2023-07-20T05:51:33;100736.50;;;22.39;60.49
20368;BME280;10343;52.402;9.796;2023-07-20T05:54:02;100734.28;;;22.57;59.39
20368;BME280;10343;52.402;9.796;2023-07-20T05:56:30;100748.47;;;22.09;62.01
20368;BME280;10343;52.402;9.796;2023-07-20T05:58:58;100743.38;;;22.17;61.02
20368;BME280;10343;52.402;9.796;2023-07-20T06:01:26;100735.84;;;22.48;59.93
20368;BME280;10343;52.402;9.796;2023-07-20T06:03:54;100737.81;;;22.95;57.90
20368;BME280;10343;52.402;9.796;2023-07-20T06:06:22;100748.75;;;22.69;58.68
20368;BME280;10343;52.402;9.796;2023-07-20T06:08:52;100741.97;;;22.87;57.97
20368;BME280;10343;52.402;9.796;2023-07-20T06:11:20;100742.75;;;22.89;57.96
20368;BME280;10343;52.402;9.796;2023-07-20T06:13:48;100731.38;;;23.08;56.29
20368;BME280;10343;52.402;9.796;2023-07-20T06:16:15;100732.63;;;23.04;55.64
20368;BME280;10343;52.402;9.796;2023-07-20T06:18:43;100732.44;;;23.43;55.10
20368;BME280;10343;52.402;9.796;2023-07-20T06:21:11;100744.19;;;23.31;56.07
20368;BME280;10343;52.402;9.796;2023-07-20T06:23:40;100746.47;;;22.63;56.60
20368;BME280;10343;52.402;9.796;2023-07-20T06:26:09;100736.97;;;22.94;55.95
20368;BME280;10343;52.402;9.796;2023-07-20T06:28:37;100735.97;;;23.68;53.21
20368;BME280;10343;52.402;9.796;2023-07-20T06:31:05;100741.66;;;22.42;57.69
20368;BME280;10343;52.402;9.796;2023-07-20T06:33:33;100738.66;;;22.34;58.06
20368;BME280;10343;52.402;9.796;2023-07-20T06:36:02;100740.47;;;22.83;55.91
20368;BME280;10343;52.402;9.796;2023-07-20T06:38:30;100753.63;;;22.64;55.12
20368;BME280;10343;52.402;9.796;2023-07-20T06:40:58;100755.50;;;23.36;54.49
20368;BME280;10343;52.402;9.796;2023-07-20T06:43:31;100755.03;;;23.31;56.05
20368;BME280;10343;52.402;9.796;2023-07-20T06:46:02;100759.19;;;23.70;54.53
20368;BME280;10343;52.402;9.796;2023-07-20T06:48:31;100767.66;;;23.54;54.17
20368;BME280;10343;52.402;9.796;2023-07-20T06:51:20;100769.34;;;23.07;55.88
20368;BME280;10343;52.402;9.796;2023-07-20T06:53:49;100766.78;;;23.05;56.90
20368;BME280;10343;52.402;9.796;2023-07-20T06:56:16;100768.75;;;23.52;55.11
20368;BME280;10343;52.402;9.796;2023-07-20T06:58:48;100767.56;;;24.14;52.36
20368;BME280;10343;52.402;9.796;2023-07-20T07:01:16;100770.50;;;24.34;51.06
20368;BME280;10343;52.402;9.796;2023-07-20T07:03:44;100768.19;;;24.29;50.97
20368;BME280;10343;52.402;9.796;2023-07-20T07:06:12;100774.19;;;25.01;47.83
20368;BME280;10343;52.402;9.796;2023-07-20T07:08:40;100773.50;;;24.65;50.87
20368;BME280;10343;52.402;9.796;2023-07-20T07:11:11;100782.63;;;23.47;53.84
20368;BME280;10343;52.402;9.796;2023-07-20T07:13:39;100776.19;;;24.31;50.41
20368;BME280;10343;52.402;9.796;2023-07-20T07:16:08;100772.50;;;24.32;50.05
20368;BME280;10343;52.402;9.796;2023-07-20T07:18:36;100776.25;;;24.97;48.98
20368;BME280;10343;52.402;9.796;2023-07-20T07:21:06;100766.00;;;25.12;48.22
20368;BME280;10343;52.402;9.796;2023-07-20T07:23:34;100772.13;;;24.82;47.62
20368;BME280;10343;52.402;9.796;2023-07-20T07:26:02;100764.38;;;24.20;49.34
20368;BME280;10343;52.402;9.796;2023-07-20T07:28:30;100765.78;;;25.04;45.95
20368;BME280;10343;52.402;9.796;2023-07-20T07:30:58;100764.94;;;25.47;44.96
20368;BME280;10343;52.402;9.796;2023-07-20T07:33:27;100769.88;;;25.42;44.39
20368;BME280;10343;52.402;9.796;2023-07-20T07:35:55;100764.63;;;26.35;43.66
20368;BME280;10343;52.402;9.796;2023-07-20T07:38:26;100763.63;;;26.05;44.45
20368;BME280;10343;52.402;9.796;2023-07-20T07:41:14;100776.09;;;25.21;43.99
20368;BME280;10343;52.402;9.796;2023-07-20T07:43:42;100793.25;;;22.76;50.08
20368;BME280;10343;52.402;9.796;2023-07-20T07:46:10;100786.28;;;24.29;46.93
20368;BME280;10343;52.402;9.796;2023-07-20T07:48:39;100793.44;;;22.86;50.91
20368;BME280;10343;52.402;9.796;2023-07-20T07:51:07;100788.94;;;23.95;48.13
20368;BME280;10343;52.402;9.796;2023-07-20T07:53:35;100790.72;;;24.75;45.97
20368;BME280;10343;52.402;9.796;2023-07-20T07:56:06;100786.25;;;24.97;43.36
20368;BME280;10343;52.402;9.796;2023-07-20T07:58:35;100786.72;;;25.57;44.10
20368;BME280;10343;52.402;9.796;2023-07-20T08:01:03;100791.94;;;25.70;43.35
20368;BME280;10343;52.402;9.796;2023-07-20T08:03:31;100795.38;;;24.96;44.48
20368;BME280;10343;52.402;9.796;2023-07-20T08:06:00;100796.94;;;25.21;43.75
20368;BME280;10343;52.402;9.796;2023-07-20T08:08:31;100804.28;;;24.64;44.55
20368;BME280;10343;52.402;9.796;2023-07-20T08:10:59;100798.41;;;24.70;43.03
20368;BME280;10343;52.402;9.796;2023-07-20T08:13:33;100804.22;;;24.07;43.09
20368;BME280;10343;52.402;9.796;2023-07-20T08:16:01;100796.44;;;23.91;42.16
20368;BME280;10343;52.402;9.796;2023-07-20T08:18:30;100799.59;;;24.20;42.36
20368;BME280;10343;52.402;9.796;2023-07-20T08:21:00;100794.63;;;24.25;42.75
20368;BME280;10343;52.402;9.796;2023-07-20T08:23:27;100803.03;;;24.56;41.07
20368;BME280;10343;52.402;9.796;2023-07-20T08:25:55;100785.38;;;25.93;38.35
20368;BME280;10343;52.402;9.796;2023-07-20T08:28:23;100803.06;;;24.45;40.04
20368;BME280;10343;52.402;9.796;2023-07-20T08:30:53;100807.66;;;23.98;39.55
20368;BME280;10343;52.402;9.796;2023-07-20T08:33:21;100801.28;;;25.01;38.92
20368;BME280;10343;52.402;9.796;2023-07-20T08:35:50;100802.94;;;24.69;41.66
20368;BME280;10343;52.402;9.796;2023-07-20T08:38:19;100806.84;;;24.99;40.88
20368;BME280;10343;52.402;9.796;2023-07-20T08:40:51;100802.00;;;25.14;40.62
20368;BME280;10343;52.402;9.796;2023-07-20T08:43:22;100816.38;;;24.82;40.67
20368;BME280;10343;52.402;9.796;2023-07-20T08:45:51;100816.63;;;24.68;39.21
20368;BME280;10343;52.402;9.796;2023-07-20T08:48:20;100819.03;;;25.05;38.71
20368;BME280;10343;52.402;9.796;2023-07-20T08:50:51;100806.97;;;25.95;37.35
20368;BME280;10343;52.402;9.796;2023-07-20T08:53:20;100811.84;;;24.13;40.29
20368;BME280;10343;52.402;9.796;2023-07-20T08:55:50;100800.97;;;25.91;37.83
20368;BME280;10343;52.402;9.796;2023-07-20T08:58:18;100802.97;;;27.13;35.53
20368;BME280;10343;52.402;9.796;2023-07-20T09:00:47;100802.03;;;26.52;35.21
20368;BME280;10343;52.402;9.796;2023-07-20T09:03:17;100801.78;;;26.24;34.88
20368;BME280;10343;52.402;9.796;2023-07-20T09:05:46;100799.91;;;26.97;33.60
20368;BME280;10343;52.402;9.796;2023-07-20T09:08:14;100791.63;;;26.57;35.02
20368;BME280;10343;52.402;9.796;2023-07-20T09:10:43;100798.25;;;26.34;35.34
20368;BME280;10343;52.402;9.796;2023-07-20T09:13:14;100806.34;;;24.15;39.17
20368;BME280;10343;52.402;9.796;2023-07-20T09:15:45;100804.19;;;25.20;36.54
20368;BME280;10343;52.402;9.796;2023-07-20T09:18:23;100802.28;;;25.76;36.28
20368;BME280;10343;52.402;9.796;2023-07-20T09:20:51;100795.78;;;25.23;37.73
20368;BME280;10343;52.402;9.796;2023-07-20T09:23:19;100807.31;;;23.78;41.13
20368;BME280;10343;52.402;9.796;2023-07-20T09:25:48;100794.22;;;25.86;35.58
20368;BME280;10343;52.402;9.796;2023-07-20T09:28:18;100798.63;;;25.87;34.65
20368;BME280;10343;52.402;9.796;2023-07-20T09:30:46;100796.94;;;25.86;35.58
20368;BME280;10343;52.402;9.796;2023-07-20T09:33:21;100786.38;;;26.35;34.85
20368;BME280;10343;52.402;9.796;2023-07-20T09:35:52;100788.19;;;26.24;34.42
20368;BME280;10343;52.402;9.796;2023-07-20T09:38:23;100794.41;;;26.46;32.32
20368;BME280;10343;52.402;9.796;2023-07-20T09:40:52;100797.34;;;26.95;30.48
20368;BME280;10343;52.402;9.796;2023-07-20T09:43:23;100801.81;;;27.06;30.48
20368;BME280;10343;52.402;9.796;2023-07-20T09:45:57;100793.81;;;26.33;32.17
20368;BME280;10343;52.402;9.796;2023-07-20T09:48:25;100803.63;;;25.17;34.95
20368;BME280;10343;52.402;9.796;2023-07-20T09:50:57;100801.78;;;26.86;32.49
20368;BME280;10343;52.402;9.796;2023-07-20T09:53:25;100803.41;;;25.73;35.06
20368;BME280;10343;52.402;9.796;2023-07-20T09:55:55;100796.03;;;26.80;33.13
20368;BME280;10343;52.402;9.796;2023-07-20T09:58:24;100789.53;;;27.41;31.83
20368;BME280;10343;52.402;9.796;2023-07-20T10:00:54;100792.16;;;27.52;30.76
20368;BME280;10343;52.402;9.796;2023-07-20T10:03:28;100788.88;;;26.88;31.38
20368;BME280;10343;52.402;9.796;2023-07-20T10:06:03;100803.75;;;27.54;29.98
20368;BME280;10343;52.402;9.796;2023-07-20T10:08:35;100793.28;;;27.69;29.87
20368;BME280;10343;52.402;9.796;2023-07-20T10:11:12;100793.28;;;27.59;30.14
20368;BME280;10343;52.402;9.796;2023-07-20T10:13:43;100794.88;;;27.52;30.26
20368;BME280;10343;52.402;9.796;2023-07-20T10:16:15;100803.88;;;27.62;29.84
20368;BME280;10343;52.402;9.796;2023-07-20T10:18:51;100785.88;;;28.56;28.96
20368;BME280;10343;52.402;9.796;2023-07-20T10:21:20;100791.34;;;29.12;28.96
20368;BME280;10343;52.402;9.796;2023-07-20T10:23:52;100800.38;;;27.02;31.16
20368;BME280;10343;52.402;9.796;2023-07-20T10:26:25;100791.34;;;28.19;29.57
20368;BME280;10343;52.402;9.796;2023-07-20T10:28:55;100795.00;;;27.60;29.81
20368;BME280;10343;52.402;9.796;2023-07-20T10:31:25;100796.56;;;27.53;29.66
20368;BME280;10343;52.402;9.796;2023-07-20T10:33:57;100795.97;;;26.39;31.54
20368;BME280;10343;52.402;9.796;2023-07-20T10:36:25;100784.66;;;27.35;30.64
20368;BME280;10343;52.402;9.796;2023-07-20T10:38:58;100810.72;;;24.74;33.54
20368;BME280;10343;52.402;9.796;2023-07-20T10:41:32;100798.09;;;27.07;30.78
20368;BME280;10343;52.402;9.796;2023-07-20T10:44:02;100796.31;;;27.56;30.45
20368;BME280;10343;52.402;9.796;2023-07-20T10:46:41;100795.41;;;26.14;32.50
20368;BME280;10343;52.402;9.796;2023-07-20T10:49:11;100785.50;;;27.25;30.09
20368;BME280;10343;52.402;9.796;2023-07-20T10:51:39;100784.94;;;27.80;29.87
20368;BME280;10343;52.402;9.796;2023-07-20T10:54:08;100791.84;;;27.45;29.66
20368;BME280;10343;52.402;9.796;2023-07-20T10:56:38;100794.59;;;26.85;30.58
20368;BME280;10343;52.402;9.796;2023-07-20T10:59:17;100795.44;;;26.76;30.84
20368;BME280;10343;52.402;9.796;2023-07-20T11:01:47;100784.81;;;27.72;30.04
20368;BME280;10343;52.402;9.796;2023-07-20T11:04:16;100796.28;;;27.46;30.30
20368;BME280;10343;52.402;9.796;2023-07-20T11:06:45;100793.97;;;27.22;30.98
20368;BME280;10343;52.402;9.796;2023-07-20T11:09:14;100794.44;;;27.57;30.46
20368;BME280;10343;52.402;9.796;2023-07-20T11:11:46;100792.72;;;27.36;30.28
20368;BME280;10343;52.402;9.796;2023-07-20T11:14:21;100786.31;;;26.97;30.62
20368;BME280;10343;52.402;9.796;2023-07-20T11:16:50;100788.13;;;27.76;29.68
20368;BME280;10343;52.402;9.796;2023-07-20T11:19:19;100779.97;;;28.33;29.23
20368;BME280;10343;52.402;9.796;2023-07-20T11:21:54;100778.94;;;28.72;28.83
20368;BME280;10343;52.402;9.796;2023-07-20T11:24:30;100779.78;;;27.87;29.87
20368;BME280;10343;52.402;9.796;2023-07-20T11:27:00;100778.72;;;28.18;29.92
20368;BME280;10343;52.402;9.796;2023-07-20T11:29:29;100787.41;;;28.41;29.93
20368;BME280;10343;52.402;9.796;2023-07-20T11:32:00;100795.16;;;28.36;29.50
20368;BME280;10343;52.402;9.796;2023-07-20T11:34:33;100779.16;;;28.23;30.16
20368;BME280;10343;52.402;9.796;2023-07-20T11:37:01;100791.66;;;27.96;30.22
20368;BME280;10343;52.402;9.796;2023-07-20T11:39:33;100799.66;;;27.97;30.71
20368;BME280;10343;52.402;9.796;2023-07-20T11:42:05;100785.78;;;28.10;29.59
20368;BME280;10343;52.402;9.796;2023-07-20T11:44:33;100787.56;;;27.43;30.60
20368;BME280;10343;52.402;9.796;2023-07-20T11:47:03;100804.72;;;27.73;30.26
20368;BME280;10343;52.402;9.796;2023-07-20T11:49:34;100788.03;;;28.25;29.31
20368;BME280;10343;52.402;9.796;2023-07-20T11:52:04;100782.03;;;28.21;29.02
20368;BME280;10343;52.402;9.796;2023-07-20T11:54:34;100791.16;;;28.30;28.60
20368;BME280;10343;52.402;9.796;2023-07-20T11:57:04;100793.00;;;27.43;30.39
20368;BME280;10343;52.402;9.796;2023-07-20T11:59:33;100778.00;;;26.98;31.22
20368;BME280;10343;52.402;9.796;2023-07-20T12:02:01;100784.91;;;28.10;29.14
20368;BME280;10343;52.402;9.796;2023-07-20T12:04:31;100776.44;;;28.51;29.10
20368;BME280;10343;52.402;9.796;2023-07-20T12:06:59;100781.81;;;29.26;28.41
20368;BME280;10343;52.402;9.796;2023-07-20T12:09:27;100762.63;;;30.59;26.75
20368;BME280;10343;52.402;9.796;2023-07-20T12:12:13;100771.81;;;28.71;28.58
20368;BME280;10343;52.402;9.796;2023-07-20T12:14:41;100776.06;;;27.29;29.86
20368;BME280;10343;52.402;9.796;2023-07-20T12:17:09;100763.72;;;29.25;27.82
20368;BME280;10343;52.402;9.796;2023-07-20T12:19:38;100759.22;;;29.60;26.77
20368;BME280;10343;52.402;9.796;2023-07-20T12:22:09;100762.41;;;29.01;27.12
20368;BME280;10343;52.402;9.796;2023-07-20T12:24:38;100765.97;;;29.29;27.34
20368;BME280;10343;52.402;9.796;2023-07-20T12:27:06;100771.94;;;28.97;26.89
20368;BME280;10343;52.402;9.796;2023-07-20T12:29:35;100759.31;;;29.50;26.34
20368;BME280;10343;52.402;9.796;2023-07-20T12:32:05;100771.47;;;29.20;26.81
20368;BME280;10343;52.402;9.796;2023-07-20T12:34:33;100773.91;;;29.41;27.34
20368;BME280;10343;52.402;9.796;2023-07-20T12:37:03;100777.44;;;26.85;30.57
20368;BME280;10343;52.402;9.796;2023-07-20T12:39:33;100779.03;;;27.85;29.75
20368;BME280;10343;52.402;9.796;2023-07-20T12:42:04;100774.31;;;28.07;28.80
20368;BME280;10343;52.402;9.796;2023-07-20T12:44:32;100766.34;;;27.56;29.12
20368;BME280;10343;52.402;9.796;2023-07-20T12:47:02;100765.59;;;28.41;28.29
20368;BME280;10343;52.402;9.796;2023-07-20T12:49:30;100765.34;;;28.62;27.97
20368;BME280;10343;52.402;9.796;2023-07-20T12:51:58;100765.06;;;28.93;28.23
20368;BME280;10343;52.402;9.796;2023-07-20T12:54:26;100758.09;;;29.89;26.72
20368;BME280;10343;52.402;9.796;2023-07-20T12:56:57;100760.22;;;29.77;27.33
20368;BME280;10343;52.402;9.796;2023-07-20T12:59:29;100753.25;;;29.56;27.12
20368;BME280;10343;52.402;9.796;2023-07-20T13:01:58;100749.44;;;30.20;25.78